createdAt,value
2022-09-21T00:11:02.277Z,10.9
2022-09-21T00:12:11.498Z,10.9
2022-09-21T00:16:54.369Z,10.8
2022-09-21T00:21:37.251Z,10.4
2022-09-21T00:27:10.134Z,10.6
2022-09-21T00:30:38.610Z,10.6
2022-09-21T00:35:21.522Z,10.7
2022-09-21T00:40:04.313Z,10.4
2022-09-21T00:45:17.409Z,10.4
2022-09-21T00:46:24.069Z,10.5
2022-09-21T00:54:40.338Z,10.4
2022-09-21T00:55:52.033Z,10.4
2022-09-21T01:03:58.268Z,10.3
2022-09-21T01:27:49.658Z,10.3
2022-09-21T01:32:37.483Z,10.4
2022-09-21T01:37:30.384Z,10.3
2022-09-21T01:42:51.035Z,10.2
2022-09-21T01:47:23.124Z,10.2
2022-09-21T01:52:55.829Z,10.2
2022-09-21T01:57:46.905Z,10.3
2022-09-21T02:03:30.726Z,10.4
2022-09-21T02:08:16.533Z,10.4
2022-09-21T02:13:47.229Z,10.1
2022-09-21T02:18:29.898Z,10.1
2022-09-21T02:19:44.210Z,10.1
2022-09-21T02:24:34.965Z,9.9
2022-09-21T02:29:04.998Z,9.9
2022-09-21T02:30:17.052Z,9.7
2022-09-21T02:34:47.820Z,9.7
2022-09-21T02:40:18.256Z,10
2022-09-21T02:41:27.339Z,10
2022-09-21T02:44:54.759Z,9.9
2022-09-21T02:49:40.765Z,9.8
2022-09-21T02:55:09.085Z,9.9
2022-09-21T02:59:52.119Z,10
2022-09-21T03:05:05.145Z,10.4
2022-09-21T03:10:18.023Z,10.3
2022-09-21T03:14:50.840Z,10.3
2022-09-21T03:19:33.785Z,10.1
2022-09-21T03:24:16.781Z,9.8
2022-09-21T03:29:44.687Z,10.1
2022-09-21T03:34:57.717Z,9.8
2022-09-21T03:40:10.624Z,9.9
2022-09-21T03:44:53.526Z,9.7
2022-09-21T03:50:09.764Z,10.1
2022-09-21T03:55:18.993Z,10.2
2022-09-21T03:59:51.213Z,10.2
2022-09-21T04:04:34.171Z,9.4
2022-09-21T04:09:46.818Z,10
2022-09-21T04:14:19.040Z,10
2022-09-21T04:19:31.844Z,9.6
2022-09-21T04:24:14.873Z,9.9
2022-09-21T04:27:04.658Z,9.8
2022-09-21T04:29:43.217Z,9.8
2022-09-21T04:32:17.827Z,10.1
2022-09-21T04:33:25.600Z,10
2022-09-21T04:34:29.737Z,10.1
2022-09-21T04:37:02.988Z,10.2
2022-09-21T04:38:09.504Z,9.9
2022-09-21T04:39:13.632Z,9.9
2022-09-21T04:50:33.009Z,9.9
2022-09-21T04:51:42.332Z,9.9
2022-09-21T04:52:48.898Z,9.8
2022-09-21T04:53:53.260Z,9.7
2022-09-21T04:56:46.705Z,9.9
2022-09-21T04:57:50.892Z,9.9
2022-09-21T04:58:55.122Z,10
2022-09-21T05:00:11.453Z,9.8
2022-09-21T05:01:15.756Z,9.9
2022-09-21T05:04:09.210Z,10.1
2022-09-21T05:05:13.377Z,10.1
2022-09-21T05:09:56.484Z,10
2022-09-21T05:11:03.249Z,9.8
2022-09-21T05:15:40.962Z,10.1
2022-09-21T05:23:50.213Z,10.4
2022-09-21T05:26:21.400Z,10.3
2022-09-21T05:29:48.508Z,10.3
2022-09-21T05:34:46.387Z,10.2
2022-09-21T05:38:52.496Z,10.3
2022-09-21T05:39:56.721Z,10.5
2022-09-21T05:42:35.400Z,10.3
2022-09-21T05:43:39.540Z,10.3
2022-09-21T05:44:46.592Z,10.3
2022-09-21T05:45:50.892Z,10.4
2022-09-21T05:47:02.828Z,10.3
2022-09-21T05:48:11.916Z,10.5
2022-09-21T05:49:23.828Z,10.4
2022-09-21T05:50:35.828Z,10.4
2022-09-21T05:51:47.809Z,10.5
2022-09-21T05:52:56.873Z,10.4
2022-09-21T05:54:08.721Z,10.5
2022-09-21T05:57:12.189Z,10.6
2022-09-21T05:58:26.465Z,10.7
2022-09-21T05:59:38.380Z,10.6
2022-09-21T06:00:52.597Z,10.1
2022-09-21T06:02:01.826Z,10.3
2022-09-21T06:03:17.497Z,10.5
2022-09-21T06:04:22.980Z,10.5
2022-09-21T06:07:01.433Z,10.7
2022-09-21T06:08:05.492Z,10.7
2022-09-21T06:09:16.824Z,10.6
2022-09-21T06:10:20.977Z,10.5
2022-09-21T06:11:27.121Z,10.4
2022-09-21T06:12:31.224Z,10.6
2022-09-21T06:13:35.446Z,10.6
2022-09-21T06:16:16.062Z,10.8
2022-09-21T06:17:33.664Z,10.7
2022-09-21T06:18:37.808Z,10.6
2022-09-21T06:24:33.270Z,10.5
2022-09-21T06:27:01.541Z,10.7
2022-09-21T06:28:05.664Z,10.3
2022-09-21T06:30:42.163Z,10.2
2022-09-21T06:31:51.269Z,10.5
2022-09-21T06:32:55.440Z,10.6
2022-09-21T06:36:01.336Z,10.8
2022-09-21T06:37:05.425Z,10.8
2022-09-21T06:38:09.464Z,10.6
2022-09-21T06:39:19.452Z,10.5
2022-09-21T06:40:23.653Z,10.7
2022-09-21T06:41:32.634Z,10.9
2022-09-21T06:42:36.748Z,11
2022-09-21T06:43:40.836Z,10.9
2022-09-21T06:44:45.540Z,10.9
2022-09-21T06:45:49.778Z,10.9
2022-09-21T06:46:56.368Z,10.8
2022-09-21T06:48:13.333Z,10.7
2022-09-21T06:49:17.400Z,10.6
2022-09-21T06:52:00.980Z,10.6
2022-09-21T06:54:54.617Z,10.5
2022-09-21T06:55:58.780Z,10.6
2022-09-21T06:59:43.321Z,10.9
2022-09-21T07:00:47.543Z,10.7
2022-09-21T07:03:16.352Z,10.7
2022-09-21T07:06:15.468Z,10.8
2022-09-21T07:07:19.772Z,11
2022-09-21T07:10:43.328Z,11
2022-09-21T07:13:31.636Z,11.2
2022-09-21T07:16:55.064Z,11.4
2022-09-21T07:19:18.182Z,11.2
2022-09-21T07:20:27.399Z,11
2022-09-21T07:21:31.596Z,11.1
2022-09-21T07:24:45.665Z,11
2022-09-21T07:25:49.624Z,10.8
2022-09-21T07:26:53.664Z,10.8
2022-09-21T07:27:58.632Z,11.1
2022-09-21T07:29:02.804Z,11
2022-09-21T07:30:08.908Z,11.1
2022-09-21T07:31:13.141Z,11.1
2022-09-21T07:32:17.327Z,11.1
2022-09-21T07:35:11.083Z,10.7
2022-09-21T07:40:12.539Z,10.9
2022-09-21T07:41:18.636Z,11
2022-09-21T07:42:23.037Z,11.2
2022-09-21T07:43:45.548Z,11.2
2022-09-21T07:44:50.247Z,11
2022-09-21T07:47:43.124Z,11.4
2022-09-21T07:48:47.336Z,11.2
2022-09-21T07:53:06.987Z,11.4
2022-09-21T07:54:11.080Z,11.4
2022-09-21T07:55:26.408Z,11.6
2022-09-21T07:56:30.564Z,11.5
2022-09-21T07:59:49.091Z,11.8
2022-09-21T08:00:53.376Z,11.7
2022-09-21T08:03:46.816Z,11.5
2022-09-21T08:04:53.521Z,11.5
2022-09-21T08:07:18.419Z,11.4
2022-09-21T08:11:48.183Z,10.9
2022-09-21T08:12:57.322Z,10.9
2022-09-21T08:14:01.599Z,11.2
2022-09-21T08:18:29.199Z,11.5
2022-09-21T08:21:57.430Z,11.7
2022-09-21T08:27:11.675Z,11.6
2022-09-21T08:28:15.955Z,11.8
2022-09-21T08:31:44.629Z,11.7
2022-09-21T08:32:51.261Z,11.5
2022-09-21T08:33:52.771Z,11.7
2022-09-21T08:35:04.585Z,11.8
2022-09-21T08:36:08.867Z,12
2022-09-21T08:37:22.971Z,12
2022-09-21T08:38:27.093Z,11.7
2022-09-21T08:39:34.100Z,11.8
2022-09-21T08:44:11.726Z,12
2022-09-21T08:45:18.787Z,11.7
2022-09-21T08:46:24.410Z,11.5
2022-09-21T08:47:28.424Z,11.8
2022-09-21T08:48:42.584Z,11.8
2022-09-21T08:49:49.644Z,11.9
2022-09-21T08:50:56.555Z,12
2022-09-21T08:52:02.392Z,12
2022-09-21T08:53:06.516Z,11.9
2022-09-21T08:54:13.676Z,11.8
2022-09-21T08:55:20.470Z,11.6
2022-09-21T08:58:13.912Z,11.9
2022-09-21T08:59:21.025Z,11.8
2022-09-21T09:02:49.655Z,12
2022-09-21T09:03:56.275Z,12.2
2022-09-21T09:05:05.372Z,12.3
2022-09-21T09:06:17.663Z,12.1
2022-09-21T09:07:26.736Z,12.3
2022-09-21T09:08:40.911Z,12.4
2022-09-21T09:09:50.792Z,12.5
2022-09-21T09:10:54.859Z,12
2022-09-21T09:12:11.154Z,12
2022-09-21T09:13:18.103Z,12.3
2022-09-21T09:14:27.488Z,12.3
2022-09-21T09:15:36.535Z,12.3
2022-09-21T09:16:43.669Z,12.4
2022-09-21T09:17:57.791Z,12.3
2022-09-21T09:19:06.930Z,12.4
2022-09-21T09:20:20.980Z,12.4
2022-09-21T09:21:32.295Z,12.4
2022-09-21T09:22:35.291Z,12.7
2022-09-21T09:23:42.265Z,12.4
2022-09-21T09:24:51.299Z,12.6
2022-09-21T09:25:55.391Z,12.8
2022-09-21T09:26:59.571Z,13.1
2022-09-21T09:28:03.631Z,12.9
2022-09-21T09:29:17.752Z,12.7
2022-09-21T09:30:26.952Z,12.8
2022-09-21T09:31:31.070Z,12.8
2022-09-21T09:32:35.171Z,12.8
2022-09-21T09:33:44.580Z,12.9
2022-09-21T09:34:53.613Z,12.8
2022-09-21T09:36:02.675Z,12.8
2022-09-21T09:37:06.736Z,13.1
2022-09-21T09:38:13.591Z,13.1
2022-09-21T09:39:25.893Z,13.2
2022-09-21T09:40:29.988Z,13.4
2022-09-21T09:41:34.083Z,13.1
2022-09-21T09:42:45.963Z,12.9
2022-09-21T09:43:55.015Z,13.1
2022-09-21T09:45:09.205Z,13.1
2022-09-21T09:46:18.306Z,13.1
2022-09-21T09:47:30.427Z,13.4
2022-09-21T09:48:34.625Z,13.2
2022-09-21T09:49:44.440Z,13
2022-09-21T09:50:58.803Z,13.1
2022-09-21T09:52:02.883Z,13.1
2022-09-21T09:53:06.887Z,13.2
2022-09-21T09:54:21.051Z,13.4
2022-09-21T09:55:27.871Z,13.4
2022-09-21T09:56:37.827Z,13.5
2022-09-21T09:57:41.856Z,13.4
2022-09-21T09:58:45.881Z,13.7
2022-09-21T09:59:54.155Z,13.8
2022-09-21T10:00:54.119Z,13.9
2022-09-21T10:01:58.357Z,14
2022-09-21T10:03:07.342Z,13.4
2022-09-21T10:04:16.571Z,13.2
2022-09-21T10:05:20.551Z,13.4
2022-09-21T10:06:24.675Z,13.4
2022-09-21T10:07:31.446Z,13.6
2022-09-21T10:11:05.147Z,13.2
2022-09-21T10:12:10.527Z,13.2
2022-09-21T10:13:16.607Z,13.2
2022-09-21T10:14:23.311Z,13.1
2022-09-21T10:17:46.716Z,13.3
2022-09-21T10:18:51.046Z,13.3
2022-09-21T10:20:59.199Z,13.3
2022-09-21T10:24:26.064Z,13.4
2022-09-21T10:27:49.471Z,13.4
2022-09-21T10:28:53.747Z,13.6
2022-09-21T10:33:18.171Z,13.6
2022-09-21T10:34:22.296Z,13.4
2022-09-21T10:38:56.819Z,13
2022-09-21T10:40:11.130Z,12.9
2022-09-21T10:41:17.942Z,12.9
2022-09-21T10:44:51.455Z,13.4
2022-09-21T10:46:05.670Z,13.2
2022-09-21T10:47:11.076Z,13.6
2022-09-21T10:52:47.472Z,14.2
2022-09-21T10:54:01.488Z,14.2
2022-09-21T11:07:51.240Z,13
2022-09-21T11:09:03.279Z,13.1
2022-09-21T11:13:31.119Z,13.2
2022-09-21T11:14:45.367Z,13.3
2022-09-21T11:15:57.384Z,13.4
2022-09-21T11:18:45.722Z,13.7
2022-09-21T11:19:57.735Z,13.7
2022-09-21T11:21:06.866Z,13.5
2022-09-21T11:22:19.575Z,13.7
2022-09-21T11:23:38.416Z,14.1
2022-09-21T11:24:47.478Z,14.2
2022-09-21T11:25:59.239Z,13.8
2022-09-21T11:27:08.413Z,13.6
2022-09-21T11:28:15.238Z,13.7
2022-09-21T11:29:19.359Z,13.9
2022-09-21T11:30:28.807Z,14
2022-09-21T11:33:02.110Z,13.9
2022-09-21T11:34:16.492Z,14.1
2022-09-21T11:35:25.626Z,14.2
2022-09-21T11:36:34.770Z,14.2
2022-09-21T11:37:44.058Z,14.1
2022-09-21T11:38:53.215Z,14.1
2022-09-21T11:40:02.459Z,14.2
2022-09-21T11:41:11.489Z,14.1
2022-09-21T11:42:23.570Z,14.1
2022-09-21T11:43:32.826Z,14.1
2022-09-21T11:44:47.079Z,14.3
2022-09-21T11:45:53.799Z,14.2
2022-09-21T11:47:08.018Z,14.3
2022-09-21T11:48:20.426Z,14.4
2022-09-21T11:49:27.713Z,14.6
2022-09-21T11:50:39.944Z,14.6
2022-09-21T11:51:48.954Z,14.5
2022-09-21T11:52:55.947Z,14.5
2022-09-21T11:54:08.362Z,14.5
2022-09-21T11:55:27.574Z,14.3
2022-09-21T11:56:39.806Z,14.3
2022-09-21T11:57:54.888Z,14.5
2022-09-21T11:59:04.069Z,14.6
2022-09-21T12:00:13.301Z,14.7
2022-09-21T12:01:20.526Z,14.5
2022-09-21T12:02:28.022Z,14.3
2022-09-21T12:03:42.136Z,14.3
2022-09-21T12:04:49.408Z,14.4
2022-09-21T12:06:03.709Z,14.6
2022-09-21T12:07:17.902Z,14.4
2022-09-21T12:08:24.894Z,14.4
2022-09-21T12:09:34.156Z,14.7
2022-09-21T12:10:43.364Z,14.8
2022-09-21T12:11:57.654Z,15
2022-09-21T12:13:11.990Z,15.1
2022-09-21T12:14:21.133Z,15
2022-09-21T12:15:35.474Z,15
2022-09-21T12:18:59.101Z,15
2022-09-21T12:23:42.155Z,14.8
2022-09-21T12:24:52.312Z,14.7
2022-09-21T12:25:57.057Z,14.9
2022-09-21T12:27:01.416Z,15.3
2022-09-21T12:28:06.642Z,15.4
2022-09-21T12:29:21.139Z,15
2022-09-21T12:30:30.440Z,14.9
2022-09-21T12:31:39.432Z,15.1
2022-09-21T12:32:54.238Z,15.2
2022-09-21T12:37:19.286Z,15
2022-09-21T12:39:45.505Z,14.9
2022-09-21T12:40:55.973Z,15.1
2022-09-21T12:43:26.975Z,15.1
2022-09-21T12:44:36.157Z,15.2
2022-09-21T12:48:03.878Z,15.1
2022-09-21T12:49:18.170Z,14.8
2022-09-21T12:50:27.413Z,14.7
2022-09-21T12:51:31.557Z,14.8
2022-09-21T12:56:10.075Z,14.8
2022-09-21T12:59:32.492Z,14.6
2022-09-21T13:00:44.566Z,14.6
2022-09-21T13:01:57.268Z,14.7
2022-09-21T13:07:35.177Z,14.8
2022-09-21T13:12:58.267Z,14.8
2022-09-21T13:17:28.286Z,14.8
2022-09-21T13:23:06.482Z,14
2022-09-21T13:27:54.510Z,14.4
2022-09-21T13:32:40.338Z,14.8
2022-09-21T13:38:01.359Z,15.1
2022-09-21T13:39:15.663Z,15.1
2022-09-21T13:43:48.206Z,15.1
2022-09-21T13:49:08.756Z,14.5
2022-09-21T13:53:38.789Z,14.5
2022-09-21T13:59:19.484Z,14.7
2022-09-21T14:02:43.141Z,14.7
2022-09-21T14:05:36.657Z,14.6
2022-09-21T14:10:22.380Z,14.3
2022-09-21T14:13:13.615Z,14.3
2022-09-21T14:16:45.062Z,14.3
2022-09-21T14:22:00.716Z,14.4
2022-09-21T14:27:13.466Z,14.6
2022-09-21T14:32:19.219Z,14.7
2022-09-21T14:37:12.187Z,14.5
2022-09-21T14:42:30.115Z,14.5
2022-09-21T14:47:42.908Z,13.6
2022-09-21T14:49:50.831Z,13.6
2022-09-21T14:54:15.524Z,13.1
2022-09-21T14:57:19.729Z,13.1
2022-09-21T14:58:31.531Z,13.1
2022-09-21T14:59:40.620Z,13.2
2022-09-21T15:00:50.044Z,13.3
2022-09-21T15:03:23.275Z,13.3
2022-09-21T15:04:30.240Z,13
2022-09-21T15:05:54.042Z,13.2
2022-09-21T15:07:06.536Z,12.5
2022-09-21T15:10:40.133Z,13.3
2022-09-21T15:11:59.611Z,13.1
2022-09-21T15:13:16.543Z,13.3
2022-09-21T15:14:26.286Z,13.4
2022-09-21T15:15:38.334Z,13.4
2022-09-21T15:16:51.723Z,13.4
2022-09-21T15:17:59.237Z,13.4
2022-09-21T15:19:10.248Z,13.4
2022-09-21T15:22:04.638Z,13.4
2022-09-21T15:25:21.522Z,13.2
2022-09-21T15:28:18.633Z,13.3
2022-09-21T15:35:06.046Z,13
2022-09-21T15:36:20.526Z,13.2
2022-09-21T15:39:40.399Z,13.1
2022-09-21T15:40:44.662Z,13.2
2022-09-21T15:47:13.430Z,13.4
2022-09-21T15:55:31.482Z,13
2022-09-21T15:56:35.606Z,13.2
2022-09-21T16:00:01.540Z,13.2
2022-09-21T16:02:50.222Z,13.2
2022-09-21T16:04:19.793Z,13
2022-09-21T16:05:23.850Z,13.1
2022-09-21T16:06:27.967Z,13.1
2022-09-21T16:09:27.250Z,13
2022-09-21T16:12:26.777Z,13
2022-09-21T16:13:41.190Z,13
2022-09-21T16:18:25.221Z,13
2022-09-21T16:22:55.266Z,12.9
2022-09-21T16:24:04.577Z,12.9
2022-09-21T16:25:18.897Z,13
2022-09-21T16:29:42.361Z,13
2022-09-21T16:33:08.518Z,13
2022-09-21T16:34:22.792Z,13
2022-09-21T16:40:03.071Z,12.9
2022-09-21T16:46:19.955Z,12.9
2022-09-21T16:47:34.191Z,12.9
2022-09-21T16:52:10.267Z,12.8
2022-09-21T16:58:24.367Z,12.7
2022-09-21T17:05:13.580Z,12.7
2022-09-21T17:06:18.479Z,12.7
2022-09-21T17:12:12.813Z,12.7
2022-09-21T17:13:16.876Z,12.7
2022-09-21T17:16:42.591Z,12.8
2022-09-21T17:17:59.868Z,12.8
2022-09-21T17:19:26.220Z,12.8
2022-09-21T17:22:50.436Z,12.9
2022-09-21T17:23:59.711Z,12.9
2022-09-21T17:29:14.123Z,12.9
2022-09-21T17:33:02.301Z,12.8
2022-09-21T17:34:06.316Z,12.8
2022-09-21T17:35:10.624Z,12.6
2022-09-21T17:52:14.671Z,12.6
2022-09-21T17:53:25.583Z,12.5
2022-09-21T17:54:35.116Z,12.5
2022-09-21T17:55:39.616Z,12.6
2022-09-21T18:00:24.191Z,12.7
2022-09-21T18:01:28.638Z,12.7
2022-09-21T18:02:35.622Z,12.7
2022-09-21T18:03:39.984Z,12.7
2022-09-21T18:04:44.908Z,12.8
2022-09-21T18:05:49.879Z,12.8
2022-09-21T18:06:57.663Z,12.8
2022-09-21T18:08:02.240Z,12.8
2022-09-21T18:09:06.779Z,12.8
2022-09-21T18:10:10.959Z,12.8
2022-09-21T18:11:16.091Z,12.8
2022-09-21T18:12:31.546Z,12.8
2022-09-21T18:13:35.723Z,12.7
2022-09-21T18:14:52.619Z,12.7
2022-09-21T18:16:07.405Z,12.7
2022-09-21T18:17:17.000Z,12.7
2022-09-21T18:18:31.920Z,12.7
2022-09-21T18:19:41.272Z,12.7
2022-09-21T18:20:54.616Z,12.7
2022-09-21T18:22:05.363Z,12.7
2022-09-21T18:23:12.615Z,12.7
2022-09-21T18:24:19.876Z,12.7
2022-09-21T18:25:27.868Z,12.7
2022-09-21T18:26:35.755Z,12.7
2022-09-21T18:27:40.700Z,12.7
2022-09-21T18:28:45.484Z,12.7
2022-09-21T18:29:50.767Z,12.7
2022-09-21T18:30:55.602Z,12.6
2022-09-21T18:32:00.065Z,12.6
2022-09-21T18:33:09.893Z,12.6
2022-09-21T18:35:34.344Z,12.6
2022-09-21T18:37:58.198Z,12.6
2022-09-21T18:39:10.703Z,12.5
2022-09-21T18:40:23.019Z,12.5
2022-09-21T18:41:37.506Z,12.5
2022-09-21T18:42:42.134Z,12.5
2022-09-21T18:43:46.486Z,12.5
2022-09-21T18:45:01.003Z,12.5
2022-09-21T18:46:08.454Z,12.5
2022-09-21T18:47:18.475Z,12.5
2022-09-21T18:48:22.794Z,12.5
2022-09-21T18:49:37.766Z,12.5
2022-09-21T18:50:47.250Z,12.4
2022-09-21T18:51:57.310Z,12.4
2022-09-21T18:53:08.321Z,12.4
2022-09-21T18:54:12.487Z,12.4
2022-09-21T18:55:19.734Z,12.4
2022-09-21T18:56:24.825Z,12.4
2022-09-21T18:57:29.806Z,12.4
2022-09-21T18:58:34.371Z,12.4
2022-09-21T18:59:39.726Z,12.3
2022-09-21T19:00:44.934Z,12.3
2022-09-21T19:01:51.052Z,12.4
2022-09-21T19:03:15.585Z,12.3
2022-09-21T19:03:59.747Z,12.3
2022-09-21T19:05:04.322Z,12.3
2022-09-21T19:06:09.101Z,12.3
2022-09-21T19:07:21.132Z,12.3
2022-09-21T19:08:28.438Z,12.3
2022-09-21T19:09:35.742Z,12.3
2022-09-21T19:10:50.508Z,12.3
2022-09-21T19:12:00.594Z,12.3
2022-09-21T19:13:11.454Z,12.4
2022-09-21T19:14:21.062Z,12.4
2022-09-21T19:15:55.917Z,12.4
2022-09-21T19:16:39.511Z,12.4
2022-09-21T19:17:48.922Z,12.4
2022-09-21T19:19:03.346Z,12.4
2022-09-21T19:20:20.777Z,12.4
2022-09-21T19:21:31.330Z,12.4
2022-09-21T19:22:44.034Z,12.4
2022-09-21T19:23:49.350Z,12.4
2022-09-21T19:25:01.686Z,12.4
2022-09-21T19:26:09.132Z,12.4
2022-09-21T19:27:21.058Z,12.4
2022-09-21T19:28:35.570Z,12.4
2022-09-21T19:29:42.934Z,12.4
2022-09-21T19:31:00.254Z,12.4
2022-09-21T19:32:04.690Z,12.4
2022-09-21T19:33:26.691Z,12.4
2022-09-21T19:34:24.158Z,12.4
2022-09-21T19:35:28.820Z,12.4
2022-09-21T19:37:36.907Z,12.4
2022-09-21T19:38:41.526Z,12.4
2022-09-21T19:39:45.894Z,12.4
2022-09-21T19:40:50.511Z,12.5
2022-09-21T19:41:56.015Z,12.5
2022-09-21T19:43:08.298Z,12.5
2022-09-21T19:44:20.954Z,12.5
2022-09-21T19:45:25.246Z,12.5
2022-09-21T19:46:39.831Z,12.5
2022-09-21T19:47:46.974Z,12.5
2022-09-21T19:48:54.574Z,12.5
2022-09-21T19:49:58.898Z,12.5
2022-09-21T19:51:08.310Z,12.5
2022-09-21T19:52:17.789Z,12.5
2022-09-21T19:53:22.261Z,12.5
2022-09-21T19:54:33.037Z,12.5
2022-09-21T19:55:42.930Z,12.5
2022-09-21T19:56:55.493Z,12.5
2022-09-21T19:58:02.658Z,12.5
2022-09-21T19:59:12.006Z,12.5
2022-09-21T20:00:22.006Z,12.5
2022-09-21T20:01:26.731Z,12.5
2022-09-21T20:02:31.699Z,12.5
2022-09-21T20:03:41.065Z,12.5
2022-09-21T20:04:46.041Z,12.5
2022-09-21T20:05:55.374Z,12.5
2022-09-21T20:07:02.237Z,12.5
2022-09-21T20:08:14.348Z,12.5
2022-09-21T20:09:21.490Z,12.5
2022-09-21T20:10:28.389Z,12.5
2022-09-21T20:11:35.357Z,12.5
2022-09-21T20:12:42.586Z,12.5
2022-09-21T20:13:47.066Z,12.4
2022-09-21T20:14:56.398Z,12.4
2022-09-21T20:16:10.674Z,12.4
2022-09-21T20:17:22.676Z,12.4
2022-09-21T20:18:32.114Z,12.4
2022-09-21T20:19:47.234Z,12.4
2022-09-21T20:20:56.622Z,12.3
2022-09-21T20:22:01.141Z,12.3
2022-09-21T20:23:14.625Z,12.3
2022-09-21T20:24:19.042Z,12.3
2022-09-21T20:25:26.665Z,12.3
2022-09-21T20:26:36.181Z,12.3
2022-09-21T20:27:40.446Z,12.2
2022-09-21T20:28:44.690Z,12.2
2022-09-21T20:29:49.174Z,12.2
2022-09-21T20:30:53.775Z,12.2
2022-09-21T20:31:58.214Z,12.1
2022-09-21T20:33:02.521Z,12.1
2022-09-21T20:34:07.582Z,12.1
2022-09-21T20:35:12.064Z,12.1
2022-09-21T20:36:19.145Z,12.1
2022-09-21T20:37:24.217Z,12.1
2022-09-21T20:38:29.157Z,12.1
2022-09-21T20:39:33.565Z,12.1
2022-09-21T20:40:37.833Z,12
2022-09-21T20:41:42.613Z,12
2022-09-21T20:42:46.923Z,12
2022-09-21T20:43:52.245Z,12
2022-09-21T20:46:00.228Z,12
2022-09-21T20:47:05.454Z,12
2022-09-21T20:48:10.062Z,12
2022-09-21T20:49:14.578Z,12
2022-09-21T20:50:18.837Z,12
2022-09-21T20:51:23.334Z,12
2022-09-21T20:52:27.538Z,12
2022-09-21T20:53:31.889Z,12
2022-09-21T20:54:36.577Z,12
2022-09-21T20:55:40.733Z,12
2022-09-21T20:56:45.346Z,12
2022-09-21T20:57:49.554Z,12
2022-09-21T20:58:53.898Z,11.9
2022-09-21T20:59:59.765Z,11.8
2022-09-21T21:01:04.862Z,11.8
2022-09-21T21:02:08.953Z,11.9
2022-09-21T21:03:13.221Z,11.9
2022-09-21T21:04:18.015Z,11.8
2022-09-21T21:05:22.733Z,11.9
2022-09-21T21:06:26.941Z,12
2022-09-21T21:07:31.785Z,12
2022-09-21T21:08:36.169Z,12
2022-09-21T21:09:40.653Z,12
2022-09-21T21:10:44.817Z,11.9
2022-09-21T21:11:49.861Z,11.9
2022-09-21T21:12:54.393Z,11.4
2022-09-21T21:13:59.429Z,11.6
2022-09-21T21:15:03.734Z,11.7
2022-09-21T21:16:12.021Z,11.8
2022-09-21T21:17:12.645Z,11.9
2022-09-21T21:18:17.173Z,12
2022-09-21T21:19:21.689Z,12
2022-09-21T21:20:26.065Z,12
2022-09-21T21:21:30.402Z,12
2022-09-21T21:22:35.278Z,12
2022-09-21T21:23:39.997Z,12
2022-09-21T21:24:49.269Z,12
2022-09-21T21:25:53.506Z,11.9
2022-09-21T21:27:02.074Z,12
2022-09-21T21:28:03.221Z,11.9
2022-09-21T21:29:07.566Z,12
2022-09-21T21:30:12.137Z,12
2022-09-21T21:31:20.810Z,11.8
2022-09-21T21:32:21.386Z,11.7
2022-09-21T21:33:26.213Z,11.9
2022-09-21T21:35:34.210Z,12
2022-09-21T21:36:38.513Z,12
2022-09-21T21:37:44.793Z,12
2022-09-21T21:38:49.213Z,11.9
2022-09-21T21:39:53.453Z,12
2022-09-21T21:40:57.744Z,12
2022-09-21T21:42:02.209Z,12
2022-09-21T21:43:07.002Z,12.1
2022-09-21T21:44:11.981Z,12.1
2022-09-21T21:45:16.929Z,12.1
2022-09-21T21:46:21.238Z,12.1
2022-09-21T21:47:39.107Z,12.1
2022-09-21T21:48:29.898Z,12.2
2022-09-21T21:49:39.433Z,12.2
2022-09-21T21:50:43.675Z,12.2
2022-09-21T21:51:48.046Z,12.2
2022-09-21T21:52:52.357Z,12.2
2022-09-21T21:54:00.159Z,12.2
2022-09-21T21:55:04.785Z,12.2
2022-09-21T21:56:09.897Z,12.2
2022-09-21T21:57:14.105Z,12.3
2022-09-21T21:58:18.397Z,12.3
2022-09-21T21:59:22.697Z,12.3
2022-09-21T22:00:27.013Z,12.4
2022-09-21T22:01:31.407Z,12.4
2022-09-21T22:02:35.581Z,12.4
2022-09-21T22:03:39.961Z,12.4
2022-09-21T22:04:44.958Z,12.4
2022-09-21T22:05:50.069Z,12.4
2022-09-21T22:06:55.729Z,12.5
2022-09-21T22:08:00.257Z,12.5
2022-09-21T22:09:04.473Z,12.5
2022-09-21T22:10:09.064Z,12.5
2022-09-21T22:11:13.329Z,12.5
2022-09-21T22:12:17.787Z,12.5
2022-09-21T22:13:22.477Z,12.5
2022-09-21T22:14:26.994Z,12.5
2022-09-21T22:15:31.309Z,12.5
2022-09-21T22:16:35.700Z,12.5
2022-09-21T22:17:40.337Z,12.5
2022-09-21T22:19:48.476Z,12.4
2022-09-21T22:20:52.645Z,12.4
2022-09-21T22:21:57.187Z,12.2
2022-09-21T22:23:01.506Z,12.3
2022-09-21T22:24:05.915Z,12.3
2022-09-21T22:25:10.405Z,12.2
2022-09-21T22:26:16.598Z,12
2022-09-21T22:27:21.197Z,12.1
2022-09-21T22:28:25.597Z,12.1
2022-09-21T22:30:33.509Z,12
2022-09-21T22:31:37.873Z,12
2022-09-21T22:32:42.065Z,12
2022-09-21T22:33:46.319Z,11.9
2022-09-21T22:34:50.585Z,11.9
2022-09-21T22:35:54.833Z,12
2022-09-21T22:37:06.985Z,12
2022-09-21T22:38:11.477Z,11.9
2022-09-21T22:39:15.773Z,12
2022-09-21T22:40:20.100Z,12
2022-09-21T22:41:24.581Z,11.9
2022-09-21T22:42:28.992Z,12
2022-09-21T22:43:34.000Z,12
2022-09-21T22:44:38.826Z,11.9
2022-09-21T22:45:43.223Z,11.9
2022-09-21T22:46:47.445Z,11.9
2022-09-21T22:47:51.785Z,11.8
2022-09-21T22:48:56.305Z,11.9
2022-09-21T22:50:00.554Z,11.8
2022-09-21T22:51:05.005Z,11.7
2022-09-21T22:52:09.316Z,11.6
2022-09-21T22:53:13.444Z,11.8
2022-09-21T22:54:17.877Z,11.7
2022-09-21T22:55:22.190Z,11.8
2022-09-21T22:56:26.864Z,11.7
2022-09-21T22:57:31.217Z,11.6
2022-09-21T22:58:35.473Z,11.7
2022-09-21T22:59:42.685Z,11.7
2022-09-21T23:00:47.315Z,11.7
2022-09-21T23:01:51.521Z,11.6
2022-09-21T23:02:55.777Z,11.6
2022-09-21T23:04:01.775Z,11.6
2022-09-21T23:05:08.869Z,11.4
2022-09-21T23:06:13.285Z,11.4
2022-09-21T23:07:17.637Z,11.4
2022-09-21T23:09:25.924Z,11.3
2022-09-21T23:10:30.213Z,11.3
2022-09-21T23:11:36.236Z,11.3
2022-09-21T23:12:40.837Z,11.2
2022-09-21T23:13:45.645Z,11.3
2022-09-21T23:14:50.561Z,11.2
2022-09-21T23:15:54.885Z,11.4
2022-09-21T23:17:04.909Z,11.4
2022-09-21T23:18:09.212Z,11.4
2022-09-21T23:19:14.233Z,11.5
2022-09-21T23:20:18.485Z,11.4
2022-09-21T23:21:22.877Z,11.3
2022-09-21T23:22:27.377Z,11.4
2022-09-21T23:23:31.684Z,11.3
2022-09-21T23:24:36.161Z,11.4
2022-09-21T23:25:41.181Z,11.4
2022-09-21T23:26:45.445Z,11.4
2022-09-21T23:27:50.301Z,11.1
2022-09-21T23:28:55.085Z,11.3
2022-09-21T23:29:59.786Z,11.3
2022-09-21T23:31:04.215Z,11.3
2022-09-21T23:32:09.151Z,11.3
2022-09-21T23:33:13.605Z,11.3
2022-09-21T23:34:18.132Z,11.4
2022-09-21T23:35:22.329Z,11.4
2022-09-21T23:36:26.884Z,11.3
2022-09-21T23:37:31.917Z,11.2
2022-09-21T23:38:36.248Z,10.9
2022-09-21T23:39:40.380Z,10.9
2022-09-21T23:40:47.705Z,11
2022-09-21T23:41:51.977Z,11
2022-09-21T23:42:56.970Z,11.2
2022-09-21T23:44:01.478Z,10.8
2022-09-21T23:45:05.821Z,11
2022-09-21T23:46:10.200Z,11.1
2022-09-21T23:47:14.750Z,11
2022-09-21T23:48:21.397Z,11
2022-09-21T23:49:25.660Z,11.1
2022-09-21T23:50:29.965Z,11.1
2022-09-21T23:51:34.229Z,11.2
2022-09-21T23:52:38.705Z,11.1
2022-09-21T23:53:43.212Z,11.1
2022-09-21T23:54:47.477Z,11.2
2022-09-21T23:55:52.068Z,11.2
2022-09-21T23:56:56.376Z,11.2
2022-09-21T23:58:01.637Z,11.2
2022-09-21T23:59:05.132Z,10.9
